MXA459 MMZC-MMPN
Flight info
| Callsign | MXA459 |
|---|---|
| Flight time | 0h 52m |
| Altitude | 36000 |
| Route | ZCL2A ZCL J42 GDL/N0458F350 UJ7 UPN |
| Aircraft | B738/M-SDE2E3FGHIRWXY/LB1 |
Departure
| Time | 2026-05-06 07:29 |
|---|---|
| Airport | General Leobardo C. Ruiz International Airport (MMZC) |
Arrival
| Time | 2026-05-06 08:21 |
|---|---|
| Airport | Uruapan - Licenciado y General Ignacio Lopez Rayon International Airport (MMPN) |
| Time | Latitude | Longitude | Altitude | Speed | Heading |
|---|---|---|---|---|---|
| 2026-05-06 07:20 | 22.89898 | -102.68284 | 7155 ft | 11 kts | 211° |
| 2026-05-06 07:21 | 22.89831 | -102.68326 | 7154 ft | 12 kts | 208° |
| 2026-05-06 07:21 | 22.89760 | -102.68375 | 7147 ft | 11 kts | 233° |
| 2026-05-06 07:21 | 22.89743 | -102.68452 | 7153 ft | 9 kts | 270° |
| 2026-05-06 07:21 | 22.89743 | -102.68465 | 7152 ft | 3 kts | 266° |
| 2026-05-06 07:22 | 22.89741 | -102.68513 | 7141 ft | 11 kts | 268° |
| 2026-05-06 07:22 | 22.89699 | -102.68599 | 7142 ft | 14 kts | 214° |
| 2026-05-06 07:22 | 22.89606 | -102.68652 | 7140 ft | 16 kts | 207° |
| 2026-05-06 07:22 | 22.89503 | -102.68701 | 7140 ft | 17 kts | 204° |
| 2026-05-06 07:23 | 22.89393 | -102.68768 | 7140 ft | 19 kts | 211° |
| 2026-05-06 07:23 | 22.89270 | -102.68842 | 7139 ft | 21 kts | 211° |
| 2026-05-06 07:23 | 22.89144 | -102.68928 | 7135 ft | 22 kts | 205° |
| 2026-05-06 07:23 | 22.89007 | -102.69000 | 7135 ft | 7 kts | 205° |
| 2026-05-06 07:24 | 22.88964 | -102.69024 | 7132 ft | 8 kts | 206° |
| 2026-05-06 07:24 | 22.88911 | -102.69048 | 7133 ft | 9 kts | 199° |
| 2026-05-06 07:24 | 22.88853 | -102.69080 | 7130 ft | 10 kts | 214° |
| 2026-05-06 07:24 | 22.88785 | -102.69123 | 7134 ft | 12 kts | 208° |
| 2026-05-06 07:25 | 22.88706 | -102.69171 | 7133 ft | 14 kts | 207° |
| 2026-05-06 07:25 | 22.88619 | -102.69220 | 7132 ft | 15 kts | 207° |
| 2026-05-06 07:25 | 22.88524 | -102.69274 | 7133 ft | 15 kts | 208° |
| 2026-05-06 07:25 | 22.88447 | -102.69292 | 7130 ft | 8 kts | 165° |
| 2026-05-06 07:26 | 22.88397 | -102.69286 | 7130 ft | 6 kts | 202° |
| 2026-05-06 07:26 | 22.88388 | -102.69328 | 7131 ft | 7 kts | 298° |
| 2026-05-06 07:26 | 22.88423 | -102.69332 | 7130 ft | 5 kts | 18° |
| 2026-05-06 07:26 | 22.88428 | -102.69329 | 7131 ft | 0 kts | 24° |
| 2026-05-06 07:28 | 22.89172 | -102.68903 | 7135 ft | 135 kts | 28° |
| 2026-05-06 07:29 | 22.90181 | -102.68294 | 7210 ft | 191 kts | 28° |
| 2026-05-06 07:29 | 22.91451 | -102.67559 | 7729 ft | 222 kts | 27° |
| 2026-05-06 07:29 | 22.92896 | -102.66849 | 8479 ft | 226 kts | 24° |
| 2026-05-06 07:29 | 22.94321 | -102.66164 | 9378 ft | 228 kts | 20° |
| 2026-05-06 07:30 | 22.95819 | -102.65480 | 9636 ft | 251 kts | 21° |
| 2026-05-06 07:30 | 22.97509 | -102.64679 | 9828 ft | 277 kts | 22° |
| 2026-05-06 07:30 | 22.99324 | -102.63795 | 10231 ft | 289 kts | 21° |
| 2026-05-06 07:30 | 23.01297 | -102.63374 | 10771 ft | 287 kts | 354° |
| 2026-05-06 07:31 | 23.03222 | -102.63940 | 11342 ft | 284 kts | 327° |
| 2026-05-06 07:31 | 23.04664 | -102.65323 | 11881 ft | 281 kts | 301° |
| 2026-05-06 07:31 | 23.05406 | -102.67259 | 12457 ft | 278 kts | 275° |
| 2026-05-06 07:31 | 23.05309 | -102.69328 | 13054 ft | 275 kts | 251° |
| 2026-05-06 07:32 | 23.04414 | -102.71140 | 13671 ft | 274 kts | 226° |
| 2026-05-06 07:32 | 23.02902 | -102.72367 | 14266 ft | 274 kts | 202° |
| 2026-05-06 07:32 | 23.01045 | -102.72806 | 14855 ft | 276 kts | 181° |
| 2026-05-06 07:32 | 22.99139 | -102.72451 | 15464 ft | 279 kts | 167° |
| 2026-05-06 07:33 | 22.97256 | -102.71886 | 16059 ft | 282 kts | 166° |
| 2026-05-06 07:33 | 22.95357 | -102.71301 | 16598 ft | 285 kts | 166° |
| 2026-05-06 07:33 | 22.93434 | -102.70719 | 17171 ft | 287 kts | 167° |
| 2026-05-06 07:33 | 22.91497 | -102.70142 | 17716 ft | 291 kts | 167° |
| 2026-05-06 07:34 | 22.89468 | -102.69545 | 17895 ft | 314 kts | 167° |
| 2026-05-06 07:34 | 22.87243 | -102.69096 | 18080 ft | 334 kts | 175° |
| 2026-05-06 07:34 | 22.84866 | -102.68908 | 18218 ft | 354 kts | 179° |
| 2026-05-06 07:34 | 22.82336 | -102.68805 | 18355 ft | 372 kts | 179° |
| 2026-05-06 07:35 | 22.79676 | -102.68719 | 18449 ft | 389 kts | 179° |
| 2026-05-06 07:35 | 22.76925 | -102.68624 | 18516 ft | 403 kts | 179° |
| 2026-05-06 07:35 | 22.74077 | -102.68511 | 18554 ft | 416 kts | 179° |
| 2026-05-06 07:35 | 22.71147 | -102.68381 | 18597 ft | 427 kts | 179° |
| 2026-05-06 07:36 | 22.68148 | -102.68236 | 18721 ft | 433 kts | 179° |
| 2026-05-06 07:36 | 22.65136 | -102.68082 | 19014 ft | 434 kts | 178° |
| 2026-05-06 07:36 | 22.62114 | -102.67923 | 19327 ft | 435 kts | 178° |
| 2026-05-06 07:36 | 22.59089 | -102.67763 | 19632 ft | 436 kts | 179° |
| 2026-05-06 07:37 | 22.56045 | -102.67601 | 19890 ft | 438 kts | 179° |
| 2026-05-06 07:37 | 22.52995 | -102.67439 | 20174 ft | 440 kts | 179° |
| 2026-05-06 07:37 | 22.49932 | -102.67277 | 20486 ft | 442 kts | 179° |
| 2026-05-06 07:37 | 22.46857 | -102.67114 | 20797 ft | 443 kts | 179° |
| 2026-05-06 07:38 | 22.43774 | -102.66951 | 21087 ft | 445 kts | 179° |
| 2026-05-06 07:38 | 22.40674 | -102.66788 | 21377 ft | 446 kts | 179° |
| 2026-05-06 07:38 | 22.37566 | -102.66624 | 21671 ft | 447 kts | 179° |
| 2026-05-06 07:38 | 22.34447 | -102.66460 | 21932 ft | 449 kts | 179° |
| 2026-05-06 07:39 | 22.31317 | -102.66296 | 22182 ft | 451 kts | 179° |
| 2026-05-06 07:39 | 22.28173 | -102.66131 | 22467 ft | 452 kts | 179° |
| 2026-05-06 07:39 | 22.25037 | -102.65966 | 22730 ft | 453 kts | 179° |
| 2026-05-06 07:39 | 22.21883 | -102.65800 | 22981 ft | 454 kts | 179° |
| 2026-05-06 07:40 | 22.18726 | -102.65634 | 23226 ft | 455 kts | 179° |
| 2026-05-06 07:40 | 22.15548 | -102.65468 | 23465 ft | 457 kts | 179° |
| 2026-05-06 07:40 | 22.12367 | -102.65301 | 23646 ft | 458 kts | 179° |
| 2026-05-06 07:40 | 22.09179 | -102.65134 | 23840 ft | 459 kts | 179° |
| 2026-05-06 07:41 | 22.05986 | -102.64966 | 24033 ft | 460 kts | 179° |
| 2026-05-06 07:41 | 22.02778 | -102.64798 | 24198 ft | 462 kts | 179° |
| 2026-05-06 07:41 | 21.99563 | -102.64630 | 24378 ft | 463 kts | 179° |
| 2026-05-06 07:41 | 21.96336 | -102.64461 | 24547 ft | 464 kts | 179° |
| 2026-05-06 07:42 | 21.93108 | -102.64292 | 24693 ft | 465 kts | 179° |
| 2026-05-06 07:42 | 21.89871 | -102.64123 | 24857 ft | 466 kts | 179° |
| 2026-05-06 07:42 | 21.86640 | -102.63954 | 25015 ft | 467 kts | 179° |
| 2026-05-06 07:42 | 21.83378 | -102.63784 | 25173 ft | 468 kts | 179° |
| 2026-05-06 07:43 | 21.80119 | -102.63614 | 25314 ft | 469 kts | 179° |
| 2026-05-06 07:43 | 21.76859 | -102.63443 | 25441 ft | 470 kts | 179° |
| 2026-05-06 07:43 | 21.73585 | -102.63273 | 25564 ft | 471 kts | 179° |
| 2026-05-06 07:43 | 21.70301 | -102.63102 | 25685 ft | 472 kts | 179° |
| 2026-05-06 07:44 | 21.67018 | -102.62930 | 25773 ft | 472 kts | 179° |
| 2026-05-06 07:44 | 21.63729 | -102.62759 | 25853 ft | 473 kts | 179° |
| 2026-05-06 07:44 | 21.60441 | -102.62588 | 25928 ft | 474 kts | 179° |
| 2026-05-06 07:44 | 21.57143 | -102.62416 | 26022 ft | 474 kts | 179° |
| 2026-05-06 07:45 | 21.53855 | -102.62245 | 26138 ft | 473 kts | 179° |
| 2026-05-06 07:45 | 21.50568 | -102.62074 | 26263 ft | 473 kts | 179° |
| 2026-05-06 07:45 | 21.47274 | -102.61902 | 26376 ft | 473 kts | 179° |
| 2026-05-06 07:45 | 21.43986 | -102.61732 | 26521 ft | 473 kts | 179° |
| 2026-05-06 07:46 | 21.40705 | -102.61561 | 26641 ft | 472 kts | 179° |
| 2026-05-06 07:46 | 21.37409 | -102.61390 | 26776 ft | 472 kts | 179° |
| 2026-05-06 07:46 | 21.34131 | -102.61220 | 26914 ft | 472 kts | 179° |
| 2026-05-06 07:46 | 21.30891 | -102.61052 | 27060 ft | 472 kts | 179° |
| 2026-05-06 07:47 | 21.27606 | -102.60882 | 27218 ft | 471 kts | 179° |
| 2026-05-06 07:47 | 21.24334 | -102.60712 | 27367 ft | 471 kts | 179° |
| 2026-05-06 07:47 | 21.21071 | -102.60543 | 27538 ft | 471 kts | 179° |
| 2026-05-06 07:47 | 21.17786 | -102.60373 | 27686 ft | 471 kts | 179° |
| 2026-05-06 07:48 | 21.14555 | -102.60206 | 27867 ft | 470 kts | 179° |
| 2026-05-06 07:48 | 21.11249 | -102.60035 | 28037 ft | 470 kts | 179° |
| 2026-05-06 07:48 | 21.07970 | -102.59866 | 28218 ft | 470 kts | 179° |
| 2026-05-06 07:48 | 21.04708 | -102.59697 | 28397 ft | 470 kts | 179° |
| 2026-05-06 07:49 | 21.01447 | -102.59529 | 28605 ft | 469 kts | 179° |
| 2026-05-06 07:49 | 20.98181 | -102.59360 | 28789 ft | 469 kts | 179° |
| 2026-05-06 07:49 | 20.94926 | -102.59192 | 28998 ft | 468 kts | 179° |
| 2026-05-06 07:49 | 20.91677 | -102.59024 | 29199 ft | 468 kts | 179° |
| 2026-05-06 07:50 | 20.88419 | -102.58856 | 29387 ft | 468 kts | 179° |
| 2026-05-06 07:50 | 20.85168 | -102.58689 | 29577 ft | 468 kts | 179° |
| 2026-05-06 07:50 | 20.82960 | -102.58575 | 29727 ft | 468 kts | 179° |
| 2026-05-06 07:50 | 20.79711 | -102.58408 | 29933 ft | 468 kts | 179° |
| 2026-05-06 07:51 | 20.76467 | -102.58241 | 30121 ft | 468 kts | 179° |
| 2026-05-06 07:51 | 20.73249 | -102.58075 | 30283 ft | 468 kts | 179° |
| 2026-05-06 07:51 | 20.69956 | -102.57906 | 30490 ft | 468 kts | 179° |
| 2026-05-06 07:51 | 20.66745 | -102.57741 | 30682 ft | 468 kts | 179° |
| 2026-05-06 07:52 | 20.63496 | -102.57574 | 30866 ft | 468 kts | 179° |
| 2026-05-06 07:52 | 20.60245 | -102.57407 | 31064 ft | 467 kts | 179° |
| 2026-05-06 07:52 | 20.56991 | -102.57240 | 31273 ft | 467 kts | 179° |
| 2026-05-06 07:52 | 20.53743 | -102.57073 | 31474 ft | 467 kts | 180° |
| 2026-05-06 07:53 | 20.50494 | -102.56907 | 31684 ft | 467 kts | 179° |
| 2026-05-06 07:53 | 20.47242 | -102.56740 | 31909 ft | 467 kts | 180° |
| 2026-05-06 07:53 | 20.43994 | -102.56573 | 32119 ft | 467 kts | 179° |
| 2026-05-06 07:53 | 20.40749 | -102.56407 | 32325 ft | 467 kts | 180° |
| 2026-05-06 07:54 | 20.37505 | -102.56241 | 32549 ft | 467 kts | 180° |
| 2026-05-06 07:54 | 20.34264 | -102.56075 | 32805 ft | 466 kts | 180° |
| 2026-05-06 07:54 | 20.31019 | -102.55909 | 33055 ft | 465 kts | 180° |
| 2026-05-06 07:54 | 20.27746 | -102.55741 | 33286 ft | 465 kts | 180° |
| 2026-05-06 07:55 | 20.23464 | -102.55522 | 33631 ft | 464 kts | 180° |
| 2026-05-06 07:55 | 20.21330 | -102.55413 | 33803 ft | 464 kts | 180° |
| 2026-05-06 07:55 | 20.18110 | -102.55249 | 33994 ft | 465 kts | 180° |
| 2026-05-06 07:55 | 20.14787 | -102.55079 | 34181 ft | 465 kts | 180° |
| 2026-05-06 07:56 | 20.11513 | -102.54912 | 34392 ft | 465 kts | 180° |
| 2026-05-06 07:56 | 20.08288 | -102.54747 | 34631 ft | 464 kts | 180° |
| 2026-05-06 07:56 | 20.05054 | -102.54582 | 34852 ft | 464 kts | 179° |
| 2026-05-06 07:56 | 20.01790 | -102.54416 | 35061 ft | 464 kts | 179° |
| 2026-05-06 07:57 | 19.98554 | -102.54251 | 35270 ft | 464 kts | 179° |
| 2026-05-06 07:57 | 19.95339 | -102.54087 | 35498 ft | 463 kts | 179° |
| 2026-05-06 07:57 | 19.92125 | -102.53924 | 35724 ft | 463 kts | 179° |
| 2026-05-06 07:57 | 19.88897 | -102.53753 | 35874 ft | 463 kts | 178° |
| 2026-05-06 07:58 | 19.85732 | -102.53110 | 35887 ft | 467 kts | 163° |
| 2026-05-06 07:58 | 19.82761 | -102.51686 | 35899 ft | 472 kts | 151° |
| 2026-05-06 07:58 | 19.80121 | -102.49585 | 35897 ft | 478 kts | 139° |
| 2026-05-06 07:58 | 19.77786 | -102.47053 | 35908 ft | 479 kts | 136° |
| 2026-05-06 07:59 | 19.73270 | -102.41835 | 35895 ft | 481 kts | 135° |
| 2026-05-06 07:59 | 19.68757 | -102.36656 | 35707 ft | 473 kts | 135° |
| 2026-05-06 08:00 | 19.66502 | -102.34111 | 35468 ft | 471 kts | 136° |
| 2026-05-06 08:00 | 19.64237 | -102.31576 | 35236 ft | 475 kts | 136° |
| 2026-05-06 08:00 | 19.61952 | -102.29026 | 35011 ft | 476 kts | 136° |
| 2026-05-06 08:00 | 19.59667 | -102.26478 | 34783 ft | 477 kts | 136° |
| 2026-05-06 08:01 | 19.57378 | -102.23924 | 34541 ft | 477 kts | 136° |
| 2026-05-06 08:01 | 19.55086 | -102.21366 | 33731 ft | 478 kts | 136° |
| 2026-05-06 08:01 | 19.52763 | -102.18773 | 32920 ft | 478 kts | 136° |
| 2026-05-06 08:01 | 19.50480 | -102.16225 | 32114 ft | 479 kts | 136° |
| 2026-05-06 08:02 | 19.48204 | -102.13686 | 31296 ft | 479 kts | 136° |
| 2026-05-06 08:02 | 19.45897 | -102.11129 | 30464 ft | 479 kts | 138° |
| 2026-05-06 08:02 | 19.43216 | -102.09030 | 29626 ft | 471 kts | 155° |
| 2026-05-06 08:02 | 19.40161 | -102.07859 | 28648 ft | 466 kts | 170° |
| 2026-05-06 08:03 | 19.36961 | -102.07551 | 27581 ft | 457 kts | 182° |
| 2026-05-06 08:03 | 19.33845 | -102.07961 | 26255 ft | 451 kts | 194° |
| 2026-05-06 08:03 | 19.30933 | -102.09128 | 25063 ft | 447 kts | 207° |
| 2026-05-06 08:03 | 19.28257 | -102.10660 | 24349 ft | 428 kts | 201° |
| 2026-05-06 08:04 | 19.25441 | -102.11481 | 23676 ft | 412 kts | 188° |
| 2026-05-06 08:04 | 19.22643 | -102.11696 | 22878 ft | 399 kts | 178° |
| 2026-05-06 08:04 | 19.19904 | -102.11307 | 22166 ft | 396 kts | 166° |
| 2026-05-06 08:04 | 19.17202 | -102.10588 | 21500 ft | 410 kts | 169° |
| 2026-05-06 08:05 | 19.14321 | -102.10102 | 20783 ft | 424 kts | 172° |
| 2026-05-06 08:05 | 19.11377 | -102.09686 | 20038 ft | 425 kts | 173° |
| 2026-05-06 08:05 | 19.08484 | -102.09303 | 19324 ft | 408 kts | 173° |
| 2026-05-06 08:05 | 19.05747 | -102.08949 | 18604 ft | 397 kts | 173° |
| 2026-05-06 08:06 | 19.03040 | -102.08605 | 17821 ft | 388 kts | 173° |
| 2026-05-06 08:06 | 19.00381 | -102.08276 | 17081 ft | 382 kts | 173° |
| 2026-05-06 08:06 | 18.97716 | -102.07959 | 16510 ft | 392 kts | 173° |
| 2026-05-06 08:06 | 18.94966 | -102.07644 | 16035 ft | 406 kts | 173° |
| 2026-05-06 08:07 | 18.92165 | -102.07334 | 16070 ft | 404 kts | 173° |
| 2026-05-06 08:07 | 18.89340 | -102.07029 | 15757 ft | 406 kts | 173° |
| 2026-05-06 08:07 | 18.86539 | -102.06734 | 15780 ft | 405 kts | 173° |
| 2026-05-06 08:07 | 18.83736 | -102.06443 | 15636 ft | 407 kts | 173° |
| 2026-05-06 08:08 | 18.80889 | -102.06151 | 14971 ft | 412 kts | 173° |
| 2026-05-06 08:08 | 18.78041 | -102.06161 | 14326 ft | 410 kts | 188° |
| 2026-05-06 08:08 | 18.75393 | -102.07260 | 13722 ft | 414 kts | 211° |
| 2026-05-06 08:08 | 18.73250 | -102.09293 | 13090 ft | 414 kts | 228° |
| 2026-05-06 08:09 | 18.71772 | -102.11879 | 13056 ft | 413 kts | 245° |
| 2026-05-06 08:09 | 18.71022 | -102.14855 | 13031 ft | 415 kts | 263° |
| 2026-05-06 08:09 | 18.71165 | -102.17785 | 12925 ft | 390 kts | 282° |
| 2026-05-06 08:09 | 18.72107 | -102.20373 | 12660 ft | 368 kts | 300° |
| 2026-05-06 08:10 | 18.73632 | -102.22440 | 12385 ft | 348 kts | 316° |
| 2026-05-06 08:10 | 18.75516 | -102.23956 | 11982 ft | 335 kts | 331° |
| 2026-05-06 08:10 | 18.77644 | -102.24919 | 11577 ft | 324 kts | 345° |
| 2026-05-06 08:10 | 18.79810 | -102.25401 | 11165 ft | 314 kts | 354° |
| 2026-05-06 08:11 | 18.81965 | -102.25444 | 10757 ft | 305 kts | 8° |
| 2026-05-06 08:11 | 18.84005 | -102.24971 | 10378 ft | 298 kts | 16° |
| 2026-05-06 08:11 | 18.85980 | -102.24367 | 9980 ft | 293 kts | 18° |
| 2026-05-06 08:11 | 18.87913 | -102.23744 | 9569 ft | 289 kts | 18° |
| 2026-05-06 08:12 | 18.89818 | -102.23126 | 9155 ft | 284 kts | 17° |
| 2026-05-06 08:12 | 18.91675 | -102.22525 | 8748 ft | 281 kts | 17° |
| 2026-05-06 08:12 | 18.93502 | -102.21937 | 8740 ft | 267 kts | 17° |
| 2026-05-06 08:12 | 18.95222 | -102.21387 | 8747 ft | 249 kts | 17° |
| 2026-05-06 08:13 | 18.96832 | -102.20872 | 8586 ft | 239 kts | 17° |
| 2026-05-06 08:13 | 18.98429 | -102.20363 | 8201 ft | 240 kts | 17° |
| 2026-05-06 08:13 | 19.00032 | -102.19852 | 7826 ft | 240 kts | 17° |
| 2026-05-06 08:13 | 19.01623 | -102.19345 | 7498 ft | 238 kts | 17° |
| 2026-05-06 08:14 | 19.03199 | -102.18844 | 7194 ft | 235 kts | 16° |
| 2026-05-06 08:14 | 19.04725 | -102.18359 | 7182 ft | 223 kts | 16° |
| 2026-05-06 08:14 | 19.06221 | -102.17883 | 7234 ft | 228 kts | 16° |
| 2026-05-06 08:14 | 19.07771 | -102.17390 | 7254 ft | 237 kts | 16° |
| 2026-05-06 08:15 | 19.09363 | -102.16884 | 7258 ft | 238 kts | 16° |
| 2026-05-06 08:15 | 19.10929 | -102.16386 | 7251 ft | 236 kts | 16° |
| 2026-05-06 08:15 | 19.12524 | -102.15879 | 7250 ft | 235 kts | 16° |
| 2026-05-06 08:15 | 19.14064 | -102.15389 | 7250 ft | 233 kts | 16° |
| 2026-05-06 08:16 | 19.15617 | -102.14895 | 7254 ft | 233 kts | 16° |
| 2026-05-06 08:16 | 19.17162 | -102.14403 | 7263 ft | 233 kts | 17° |
| 2026-05-06 08:16 | 19.18717 | -102.13908 | 7268 ft | 234 kts | 17° |
| 2026-05-06 08:16 | 19.20282 | -102.13410 | 7275 ft | 235 kts | 17° |
| 2026-05-06 08:17 | 19.21857 | -102.12909 | 7280 ft | 236 kts | 17° |
| 2026-05-06 08:17 | 19.23438 | -102.12405 | 7280 ft | 238 kts | 17° |
| 2026-05-06 08:17 | 19.25020 | -102.11901 | 7278 ft | 238 kts | 17° |
| 2026-05-06 08:17 | 19.26608 | -102.11395 | 7280 ft | 238 kts | 17° |
| 2026-05-06 08:18 | 19.28184 | -102.10893 | 7245 ft | 231 kts | 17° |
| 2026-05-06 08:18 | 19.29187 | -102.10573 | 7150 ft | 223 kts | 17° |
| 2026-05-06 08:18 | 19.30528 | -102.09911 | 7049 ft | 207 kts | 31° |
| 2026-05-06 08:18 | 19.31725 | -102.09115 | 6752 ft | 198 kts | 32° |
| 2026-05-06 08:19 | 19.32869 | -102.08335 | 6493 ft | 188 kts | 33° |
| 2026-05-06 08:19 | 19.33846 | -102.07656 | 6450 ft | 153 kts | 31° |
| 2026-05-06 08:19 | 19.34724 | -102.07078 | 6092 ft | 146 kts | 31° |
| 2026-05-06 08:19 | 19.35574 | -102.06532 | 5825 ft | 141 kts | 30° |
| 2026-05-06 08:20 | 19.36392 | -102.06001 | 5552 ft | 133 kts | 31° |
| 2026-05-06 08:20 | 19.37176 | -102.05487 | 5430 ft | 136 kts | 31° |
| 2026-05-06 08:20 | 19.37995 | -102.04956 | 5339 ft | 137 kts | 31° |
| 2026-05-06 08:20 | 19.38803 | -102.04438 | 5156 ft | 136 kts | 31° |
| 2026-05-06 08:21 | 19.39545 | -102.03953 | 5105 ft | 109 kts | 31° |
| 2026-05-06 08:21 | 19.40012 | -102.03648 | 5105 ft | 52 kts | 32° |
| 2026-05-06 08:21 | 19.40152 | -102.03579 | 5108 ft | 11 kts | 328° |
| 2026-05-06 08:21 | 19.40189 | -102.03628 | 5109 ft | 6 kts | 302° |
| 2026-05-06 08:22 | 19.40196 | -102.03639 | 5108 ft | 0 kts | 302° |
| 2026-05-06 08:24 | 19.40359 | -102.03781 | 5114 ft | 0 kts | 323° |
| 2026-05-06 08:24 | 19.40363 | -102.03780 | 5114 ft | 0 kts | 323° |
| 2026-05-06 08:25 | 19.40369 | -102.03778 | 5113 ft | 5 kts | 12° |
| 2026-05-06 08:26 | 19.40365 | -102.03767 | 5112 ft | 4 kts | 169° |
| 2026-05-06 08:26 | 19.40310 | -102.03778 | 5117 ft | 10 kts | 174° |
| 2026-05-06 08:26 | 19.40272 | -102.03733 | 5117 ft | 8 kts | 125° |
| 2026-05-06 08:26 | 19.40246 | -102.03716 | 5117 ft | 0 kts | 198° |
| 2026-05-06 08:27 | 19.40237 | -102.03724 | 5117 ft | 1 kts | 244° |
| 2026-05-06 08:27 | 19.40243 | -102.03747 | 5116 ft | 3 kts | 290° |
| 2026-05-06 08:27 | 19.40255 | -102.03767 | 5120 ft | 2 kts | 303° |
| 2026-05-06 08:27 | 19.40266 | -102.03785 | 5119 ft | 1 kts | 301° |
| 2026-05-06 08:28 | 19.40266 | -102.03786 | 5119 ft | 0 kts | 301° |